createdAt,value
2016-06-05T00:00:46.136Z,65.75
2016-06-05T00:01:46.530Z,65.95
2016-06-05T00:02:46.125Z,65.75
2016-06-05T00:03:46.144Z,65.95
2016-06-05T00:04:46.350Z,66.24
2016-06-05T00:05:46.541Z,66.05
2016-06-05T00:06:46.558Z,65.95
2016-06-05T00:07:46.545Z,65.66
2016-06-05T00:08:46.345Z,66.05
2016-06-05T00:09:46.347Z,65.95
2016-06-05T00:10:46.147Z,65.95
2016-06-05T00:11:46.353Z,66.11
2016-06-05T00:12:46.560Z,66.24
2016-06-05T00:13:46.468Z,66.14
2016-06-05T00:14:46.360Z,66.14
2016-06-05T00:15:46.567Z,66.05
2016-06-05T00:16:46.366Z,65.95
2016-06-05T00:17:46.354Z,66.14
2016-06-05T00:18:50.857Z,65.92
2016-06-05T00:19:46.372Z,65.82
2016-06-05T00:20:46.359Z,65.92
2016-06-05T00:21:46.377Z,66.02
2016-06-05T00:22:46.365Z,66.02
2016-06-05T00:23:46.164Z,65.92
2016-06-05T00:24:46.385Z,66.02
2016-06-05T00:25:46.170Z,66.02
2016-06-05T00:26:46.579Z,66.02
2016-06-05T00:27:46.378Z,66.11
2016-06-05T00:28:46.975Z,66.11
2016-06-05T00:29:46.586Z,66.3
2016-06-05T00:30:46.183Z,66.3
2016-06-05T00:31:46.389Z,66.02
2016-06-05T00:32:46.391Z,66.02
2016-06-05T00:33:46.394Z,66.02
2016-06-05T00:34:46.412Z,66.2
2016-06-05T00:35:46.602Z,66.02
2016-06-05T00:36:46.199Z,66.02
2016-06-05T00:37:46.405Z,66.11
2016-06-05T00:38:46.408Z,66.02
2016-06-05T00:39:46.410Z,66.11
2016-06-05T00:40:46.397Z,66.11
2016-06-05T00:41:46.603Z,66.11
2016-06-05T00:42:46.200Z,66.3
2016-06-05T00:43:46.405Z,66.2
2016-06-05T00:44:46.048Z,66.2
2016-06-05T00:45:46.208Z,66.4
2016-06-05T00:46:46.616Z,66.2
2016-06-05T00:47:46.415Z,66.6
2016-06-05T00:48:46.621Z,66.3
2016-06-05T00:49:46.624Z,66.4
2016-06-05T00:50:46.627Z,66.4
2016-06-05T00:51:46.630Z,66.3
2016-06-05T00:52:46.429Z,66.6
2016-06-05T00:53:46.432Z,66.5
2016-06-05T00:54:46.420Z,66.78
2016-06-05T00:55:46.437Z,66.6
2016-06-05T00:56:46.425Z,66.3
2016-06-05T00:57:46.740Z,66.4
2016-06-05T00:58:46.743Z,66.5
2016-06-05T00:59:46.448Z,66.69
2016-06-05T01:00:46.654Z,66.5
2016-06-05T01:01:46.439Z,66.47
2016-06-05T01:02:46.441Z,66.47
2016-06-05T01:03:46.239Z,66.6
2016-06-05T01:04:46.447Z,66.4
2016-06-05T01:05:46.245Z,66.4
2016-06-05T01:06:46.655Z,66.17
2016-06-05T01:07:46.658Z,66.37
2016-06-05T01:08:46.660Z,66.27
2016-06-05T01:09:46.460Z,66.37
2016-06-05T01:10:46.259Z,66.37
2016-06-05T01:11:46.466Z,66.37
2016-06-05T01:12:46.468Z,66.85
2016-06-05T01:13:46.314Z,66.75
2016-06-05T01:14:46.660Z,65.88
2016-06-05T01:15:46.663Z,66.17
2016-06-05T01:16:46.463Z,66.75
2016-06-05T01:17:46.277Z,66.85
2016-06-05T01:18:46.468Z,66.75
2016-06-05T01:19:46.112Z,66.66
2016-06-05T01:20:46.677Z,66.66
2016-06-05T01:21:46.274Z,66.75
2016-06-05T01:22:46.479Z,66.56
2016-06-05T01:23:46.482Z,66.75
2016-06-05T01:24:46.468Z,66.75
2016-06-05T01:25:46.487Z,66.66
2016-06-05T01:26:46.490Z,66.47
2016-06-05T01:27:46.726Z,66.56
2016-06-05T01:28:46.479Z,66.47
2016-06-05T01:29:46.482Z,66.66
2016-06-05T01:30:46.281Z,66.56
2016-06-05T01:31:46.488Z,66.37
2016-06-05T01:32:46.693Z,66.66
2016-06-05T01:33:46.289Z,66.37
2016-06-05T01:34:46.292Z,66.27
2016-06-05T01:35:46.701Z,66.47
2016-06-05T01:36:46.298Z,66.47
2016-06-05T01:37:46.489Z,66.47
2016-06-05T01:38:46.694Z,66.47
2016-06-05T01:39:46.696Z,66.47
2016-06-05T01:40:46.715Z,66.37
2016-06-05T01:41:46.702Z,66.37
2016-06-05T01:42:46.502Z,66.53
2016-06-05T01:43:47.020Z,66.47
2016-06-05T01:44:46.508Z,66.66
2016-06-05T01:45:46.713Z,66.47
2016-06-05T01:46:46.512Z,66.43
2016-06-05T01:47:46.718Z,66.75
2016-06-05T01:48:46.721Z,66.56
2016-06-05T01:49:46.723Z,66.47
2016-06-05T01:50:46.305Z,66.24
2016-06-05T01:51:46.729Z,66.27
2016-06-05T01:52:46.326Z,66.24
2016-06-05T01:53:46.312Z,66.17
2016-06-05T01:54:46.721Z,66.17
2016-06-05T01:55:46.724Z,66.14
2016-06-05T01:56:46.321Z,66.24
2016-06-05T01:57:46.370Z,66.75
2016-06-05T01:58:46.981Z,66.63
2016-06-05T01:59:46.531Z,66.27
2016-06-05T02:00:46.535Z,66.72
2016-06-05T02:01:46.334Z,66.63
2016-06-05T02:02:46.728Z,66.63
2016-06-05T02:03:46.527Z,66.82
2016-06-05T02:04:46.733Z,66.82
2016-06-05T02:05:46.532Z,66.82
2016-06-05T02:06:46.534Z,66.82
2016-06-05T02:07:46.334Z,66.91
2016-06-05T02:08:46.744Z,67.01
2016-06-05T02:09:46.339Z,66.82
2016-06-05T02:10:46.545Z,66.91
2016-06-05T02:11:46.736Z,66.82
2016-06-05T02:12:46.348Z,66.82
2016-06-05T02:13:46.569Z,66.91
2016-06-05T02:14:46.541Z,66.53
2016-06-05T02:15:46.543Z,66.53
2016-06-05T02:16:46.546Z,66.91
2016-06-05T02:17:46.549Z,66.63
2016-06-05T02:18:46.551Z,66.63
2016-06-05T02:19:46.757Z,66.63
2016-06-05T02:20:46.760Z,66.63
2016-06-05T02:21:46.357Z,66.53
2016-06-05T02:22:46.765Z,66.72
2016-06-05T02:23:46.768Z,66.63
2016-06-05T02:24:46.551Z,66.63
2016-06-05T02:25:46.585Z,66.43
2016-06-05T02:26:46.355Z,66.43
2016-06-05T02:27:46.201Z,66.63
2016-06-05T02:28:46.781Z,66.33
2016-06-05T02:29:46.565Z,66.72
2016-06-05T02:30:46.771Z,66.43
2016-06-05T02:31:46.774Z,66.69
2016-06-05T02:32:46.776Z,66.59
2016-06-05T02:33:46.779Z,66.88
2016-06-05T02:34:46.767Z,66.69
2016-06-05T02:35:46.581Z,66.69
2016-06-05T02:36:46.569Z,66.88
2016-06-05T02:37:46.572Z,66.78
2016-06-05T02:38:46.778Z,66.78
2016-06-05T02:39:46.577Z,66.88
2016-06-05T02:40:46.782Z,66.88
2016-06-05T02:41:46.583Z,66.78
2016-06-05T02:42:46.381Z,66.88
2016-06-05T02:43:47.118Z,66.88
2016-06-05T02:44:46.575Z,66.88
2016-06-05T02:45:46.577Z,66.78
2016-06-05T02:46:46.580Z,66.88
2016-06-05T02:47:46.583Z,66.78
2016-06-05T02:48:46.805Z,66.78
2016-06-05T02:49:46.588Z,66.78
2016-06-05T02:50:46.794Z,66.69
2016-06-05T02:51:46.594Z,66.88
2016-06-05T02:52:46.597Z,66.69
2016-06-05T02:53:46.583Z,66.88
2016-06-05T02:54:46.788Z,66.98
2016-06-05T02:55:46.808Z,66.88
2016-06-05T02:56:46.794Z,66.98
2016-06-05T02:57:47.000Z,66.98
2016-06-05T02:58:46.816Z,66.98
2016-06-05T02:59:46.599Z,66.98
2016-06-05T03:00:46.414Z,66.69
2016-06-05T03:01:46.401Z,66.78
2016-06-05T03:02:46.404Z,66.98
2016-06-05T03:03:46.595Z,66.98
2016-06-05T03:04:46.394Z,67.04
2016-06-05T03:05:46.803Z,66.69
2016-06-05T03:06:46.617Z,66.98
2016-06-05T03:07:46.605Z,66.75
2016-06-05T03:08:46.608Z,66.88
2016-06-05T03:09:46.610Z,67.04
2016-06-05T03:10:46.411Z,67.27
2016-06-05T03:11:46.601Z,66.85
2016-06-05T03:12:46.619Z,67.14
2016-06-05T03:13:47.075Z,66.75
2016-06-05T03:14:46.608Z,67.14
2016-06-05T03:15:46.424Z,66.75
2016-06-05T03:16:46.614Z,66.56
2016-06-05T03:17:46.397Z,67.24
2016-06-05T03:18:46.416Z,66.46
2016-06-05T03:19:46.809Z,67.04
2016-06-05T03:20:46.405Z,67.04
2016-06-05T03:21:46.408Z,66.85
2016-06-05T03:22:46.629Z,67.24
2016-06-05T03:23:46.616Z,66.46
2016-06-05T03:24:46.823Z,66.66
2016-06-05T03:25:46.826Z,67.04
2016-06-05T03:26:46.829Z,67.33
2016-06-05T03:27:46.612Z,66.56
2016-06-05T03:28:47.052Z,66.56
2016-06-05T03:29:46.633Z,67.14
2016-06-05T03:30:46.620Z,67.33
2016-06-05T03:31:46.670Z,66.94
2016-06-05T03:32:46.641Z,66.94
2016-06-05T03:33:46.831Z,66.94
2016-06-05T03:34:46.834Z,67.14
2016-06-05T03:35:46.837Z,67.14
2016-06-05T03:36:46.637Z,66.94
2016-06-05T03:37:46.623Z,67.14
2016-06-05T03:38:46.829Z,67.04
2016-06-05T03:39:46.832Z,67.04
2016-06-05T03:40:46.647Z,67.14
2016-06-05T03:41:46.431Z,67.14
2016-06-05T03:42:46.292Z,66.75
2016-06-05T03:43:46.671Z,66.75
2016-06-05T03:44:46.627Z,66.85
2016-06-05T03:45:46.847Z,66.85
2016-06-05T03:46:46.632Z,66.94
2016-06-05T03:47:46.650Z,66.85
2016-06-05T03:48:46.841Z,66.85
2016-06-05T03:49:46.844Z,66.91
2016-06-05T03:50:46.861Z,66.91
2016-06-05T03:51:46.833Z,66.94
2016-06-05T03:52:46.633Z,66.94
2016-06-05T03:53:46.635Z,66.85
2016-06-05T03:54:46.654Z,66.85
2016-06-05T03:55:46.641Z,66.85
2016-06-05T03:56:46.643Z,66.85
2016-06-05T03:57:46.443Z,66.94
2016-06-05T03:58:47.210Z,66.94
2016-06-05T03:59:46.635Z,66.94
2016-06-05T04:00:46.654Z,66.94
2016-06-05T04:01:46.657Z,66.91
2016-06-05T04:02:46.644Z,66.94
2016-06-05T04:03:46.646Z,66.94
2016-06-05T04:04:46.649Z,67.01
2016-06-05T04:05:46.855Z,66.91
2016-06-05T04:06:46.654Z,66.94
2016-06-05T04:07:46.860Z,66.94
2016-06-05T04:08:46.659Z,67.04
2016-06-05T04:09:46.662Z,67.01
2016-06-05T04:10:46.447Z,67.01
2016-06-05T04:11:46.653Z,66.85
2016-06-05T04:12:46.592Z,67.01
2016-06-05T04:13:46.689Z,67.01
2016-06-05T04:14:46.661Z,67.01
2016-06-05T04:15:46.851Z,67.01
2016-06-05T04:16:46.853Z,66.91
2016-06-05T04:17:46.676Z,67.01
2016-06-05T04:18:46.893Z,66.91
2016-06-05T04:19:46.517Z,67.01
2016-06-05T04:20:46.751Z,66.91
2016-06-05T04:21:47.000Z,66.82
2016-06-05T04:22:46.995Z,66.91
2016-06-05T04:23:47.007Z,66.91
2016-06-05T04:24:47.035Z,66.91
2016-06-05T04:25:46.829Z,66.82
2016-06-05T04:26:46.842Z,66.82
2016-06-05T04:27:46.650Z,66.91
2016-06-05T04:28:47.282Z,66.91
2016-06-05T04:29:46.648Z,67.01
2016-06-05T04:30:46.670Z,66.91
2016-06-05T04:31:47.067Z,66.91
2016-06-05T04:32:46.885Z,66.91
2016-06-05T04:33:47.076Z,67.01
2016-06-05T04:34:47.081Z,66.82
2016-06-05T04:35:47.084Z,66.91
2016-06-05T04:36:47.088Z,66.91
2016-06-05T04:37:46.872Z,66.91
2016-06-05T04:38:47.079Z,66.82
2016-06-05T04:39:46.878Z,66.91
2016-06-05T04:40:46.882Z,67.01
2016-06-05T04:41:47.151Z,66.91
2016-06-05T04:42:47.279Z,66.82
2016-06-05T04:43:46.892Z,66.91
2016-06-05T04:44:46.895Z,66.82
2016-06-05T04:45:46.882Z,66.82
2016-06-05T04:46:47.089Z,66.82
2016-06-05T04:47:46.684Z,66.91
2016-06-05T04:48:46.687Z,66.72
2016-06-05T04:49:46.894Z,66.82
2016-06-05T04:50:47.099Z,66.72
2016-06-05T04:51:46.899Z,66.91
2016-06-05T04:52:46.902Z,66.72
2016-06-05T04:53:46.686Z,67.11
2016-06-05T04:54:46.891Z,66.91
2016-06-05T04:55:46.894Z,67.11
2016-06-05T04:56:46.693Z,67.11
2016-06-05T04:57:47.009Z,67.2
2016-06-05T04:58:47.683Z,66.91
2016-06-05T04:59:46.686Z,67.11
2016-06-05T05:00:47.094Z,66.91
2016-06-05T05:01:46.676Z,67.11
2016-06-05T05:02:47.100Z,67.11
2016-06-05T05:03:46.884Z,66.82
2016-06-05T05:04:46.887Z,66.63
2016-06-05T05:05:46.890Z,66.91
2016-06-05T05:06:47.096Z,66.82
2016-06-05T05:07:47.098Z,66.82
2016-06-05T05:08:47.101Z,66.63
2016-06-05T05:09:47.104Z,66.72
2016-06-05T05:10:47.107Z,66.72
2016-06-05T05:11:47.093Z,66.72
2016-06-05T05:12:47.173Z,66.33
2016-06-05T05:13:47.396Z,66.43
2016-06-05T05:14:46.695Z,66.82
2016-06-05T05:15:46.901Z,66.72
2016-06-05T05:16:47.122Z,66.63
2016-06-05T05:17:46.890Z,66.82
2016-06-05T05:18:46.909Z,66.2
2016-06-05T05:19:46.895Z,66.3
2016-06-05T05:20:46.898Z,66.72
2016-06-05T05:21:46.901Z,66.14
2016-06-05T05:22:46.904Z,66.69
2016-06-05T05:23:46.907Z,66.43
2016-06-05T05:24:47.097Z,66.3
2016-06-05T05:25:46.897Z,66.2
2016-06-05T05:26:46.900Z,66.59
2016-06-05T05:27:47.792Z,66.59
2016-06-05T05:28:47.405Z,66.11
2016-06-05T05:29:47.110Z,66.69
2016-06-05T05:30:46.894Z,66.3
2016-06-05T05:31:47.100Z,66.11
2016-06-05T05:32:46.900Z,66.3
2016-06-05T05:33:47.105Z,66.3
2016-06-05T05:34:46.905Z,66.11
2016-06-05T05:35:46.907Z,65.82
2016-06-05T05:36:46.895Z,65.82
2016-06-05T05:37:47.101Z,65.63
2016-06-05T05:38:47.104Z,65.72
2016-06-05T05:39:46.699Z,65.72
2016-06-05T05:40:46.906Z,66.11
2016-06-05T05:41:46.909Z,65.91
2016-06-05T05:42:46.912Z,65.91
2016-06-05T05:43:47.132Z,66.11
2016-06-05T05:44:46.900Z,65.91
2016-06-05T05:45:46.904Z,66.2
2016-06-05T05:46:47.109Z,65.91
2016-06-05T05:47:47.112Z,65.63
2016-06-05T05:48:46.895Z,66.4
2016-06-05T05:49:46.898Z,65.78
2016-06-05T05:50:46.698Z,65.59
2016-06-05T05:51:47.107Z,66.11
2016-06-05T05:52:46.906Z,65.78
2016-06-05T05:53:47.112Z,65.59
2016-06-05T05:54:47.115Z,65.98
2016-06-05T05:55:46.899Z,66.36
2016-06-05T05:56:46.902Z,66.27
2016-06-05T05:57:47.108Z,65.88
2016-06-05T05:58:46.705Z,66.36
2016-06-05T05:59:47.113Z,65.88
2016-06-05T06:00:47.100Z,65.78
2016-06-05T06:01:47.103Z,65.69
2016-06-05T06:02:47.121Z,66.36
2016-06-05T06:03:47.108Z,66.56
2016-06-05T06:04:46.705Z,66.36
2016-06-05T06:05:47.113Z,66.36
2016-06-05T06:06:46.897Z,66.08
2016-06-05T06:07:47.103Z,66.36
2016-06-05T06:08:47.106Z,66.27
2016-06-05T06:09:46.905Z,66.27
2016-06-05T06:10:46.704Z,66.36
2016-06-05T06:11:46.910Z,66.66
2016-06-05T06:12:46.913Z,66.85
2016-06-05T06:13:46.916Z,66.66
2016-06-05T06:14:46.903Z,66.94
2016-06-05T06:15:46.906Z,66.85
2016-06-05T06:16:47.112Z,66.85
2016-06-05T06:17:47.114Z,67.52
2016-06-05T06:18:46.914Z,67.43
2016-06-05T06:19:47.104Z,67.43
2016-06-05T06:20:46.701Z,67.23
2016-06-05T06:21:46.750Z,67.43
2016-06-05T06:22:46.909Z,67.23
2016-06-05T06:23:46.896Z,67.52
2016-06-05T06:24:47.103Z,67.14
2016-06-05T06:25:46.902Z,67.23
2016-06-05T06:26:46.919Z,67.52
2016-06-05T06:27:47.297Z,67.52
2016-06-05T06:28:47.081Z,67.33
2016-06-05T06:29:46.896Z,67.27
2016-06-05T06:30:46.899Z,67.55
2016-06-05T06:31:47.105Z,67.85
2016-06-05T06:32:46.702Z,67.85
2016-06-05T06:33:46.907Z,68.1
2016-06-05T06:34:46.910Z,67.65
2016-06-05T06:35:46.897Z,67.75
2016-06-05T06:36:46.899Z,67.46
2016-06-05T06:37:46.902Z,67.46
2016-06-05T06:38:46.702Z,67.17
2016-06-05T06:39:47.096Z,67.36
2016-06-05T06:40:46.895Z,66.97
2016-06-05T06:41:47.101Z,67.55
2016-06-05T06:42:47.276Z,66.69
2016-06-05T06:43:47.559Z,67.07
2016-06-05T06:44:46.703Z,67.07
2016-06-05T06:45:47.096Z,66.97
2016-06-05T06:46:46.911Z,66.88
2016-06-05T06:47:46.696Z,66.78
2016-06-05T06:48:46.698Z,66.49
2016-06-05T06:49:46.903Z,66.3
2016-06-05T06:50:47.109Z,66.63
2016-06-05T06:51:46.706Z,66.72
2016-06-05T06:52:46.896Z,66.24
2016-06-05T06:53:46.695Z,66.24
2016-06-05T06:54:46.901Z,66.24
2016-06-05T06:55:46.903Z,66.63
2016-06-05T06:56:46.906Z,66.53
2016-06-05T06:57:46.909Z,65.95
2016-06-05T06:58:47.006Z,65.56
2016-06-05T06:59:46.914Z,65.75
2016-06-05T07:00:47.105Z,65.47
2016-06-05T07:01:47.108Z,65.4
2016-06-05T07:02:46.891Z,65.69
2016-06-05T07:03:46.910Z,65.08
2016-06-05T07:04:47.100Z,65.4
2016-06-05T07:05:46.744Z,65.01
2016-06-05T07:06:47.106Z,65.2
2016-06-05T07:07:46.702Z,65.2
2016-06-05T07:08:46.893Z,64.92
2016-06-05T07:09:46.692Z,64.92
2016-06-05T07:10:46.694Z,64.63
2016-06-05T07:11:46.900Z,64.34
2016-06-05T07:12:46.762Z,64.53
2016-06-05T07:13:47.438Z,64.92
2016-06-05T07:14:46.893Z,64.53
2016-06-05T07:15:47.115Z,64.43
2016-06-05T07:16:47.101Z,64.72
2016-06-05T07:17:46.900Z,65.2
2016-06-05T07:18:46.904Z,64.63
2016-06-05T07:19:46.907Z,64.82
2016-06-05T07:20:46.909Z,65.11
2016-06-05T07:21:47.114Z,64.92
2016-06-05T07:22:46.711Z,65.01
2016-06-05T07:23:46.901Z,64.92
2016-06-05T07:24:46.904Z,64.92
2016-06-05T07:25:46.906Z,65.05
2016-06-05T07:26:46.706Z,64.85
2016-06-05T07:27:46.756Z,64.95
2016-06-05T07:28:46.712Z,65.14
2016-06-05T07:29:46.902Z,64.95
2016-06-05T07:30:46.905Z,64.85
2016-06-05T07:31:46.705Z,65.05
2016-06-05T07:32:47.113Z,65.34
2016-06-05T07:33:47.116Z,65.24
2016-06-05T07:34:46.697Z,65.34
2016-06-05T07:35:46.902Z,65.24
2016-06-05T07:36:47.124Z,65.63
2016-06-05T07:37:47.110Z,65.24
2016-06-05T07:38:46.911Z,65.82
2016-06-05T07:39:47.116Z,65.24
2016-06-05T07:40:47.119Z,65.72
2016-06-05T07:41:46.902Z,65.63
2016-06-05T07:42:46.905Z,65.14
2016-06-05T07:43:47.752Z,65.17
2016-06-05T07:44:46.707Z,64.89
2016-06-05T07:45:47.117Z,64.98
2016-06-05T07:46:46.916Z,64.98
2016-06-05T07:47:47.107Z,64.89
2016-06-05T07:48:46.906Z,64.69
2016-06-05T07:49:47.128Z,64.69
2016-06-05T07:50:46.959Z,64.5
2016-06-05T07:51:46.914Z,64.5
2016-06-05T07:52:47.120Z,65.37
2016-06-05T07:53:46.920Z,65.47
2016-06-05T07:54:46.922Z,64.79
2016-06-05T07:55:46.909Z,64.89
2016-06-05T07:56:46.912Z,64.82
2016-06-05T07:57:47.586Z,64.92
2016-06-05T07:58:47.684Z,64.92
2016-06-05T07:59:47.123Z,65.5
2016-06-05T08:00:47.125Z,64.62
2016-06-05T08:01:47.129Z,64.92
2016-06-05T08:02:47.116Z,64.62
2016-06-05T08:03:46.915Z,64.92
2016-06-05T08:04:47.121Z,64.92
2016-06-05T08:05:46.717Z,65.4
2016-06-05T08:06:46.705Z,65.4
2016-06-05T08:07:46.707Z,65.5
2016-06-05T08:08:47.116Z,64.82
2016-06-05T08:09:46.713Z,65.11
2016-06-05T08:10:46.918Z,65.5
2016-06-05T08:11:46.921Z,65.3
2016-06-05T08:12:46.846Z,65.3
2016-06-05T08:13:47.396Z,65.01
2016-06-05T08:14:46.929Z,64.92
2016-06-05T08:15:47.134Z,65.11
2016-06-05T08:16:47.137Z,65.4
2016-06-05T08:17:47.124Z,65.69
2016-06-05T08:18:46.721Z,65.01
2016-06-05T08:19:46.926Z,65.01
2016-06-05T08:20:46.929Z,64.43
2016-06-05T08:21:46.932Z,64.82
2016-06-05T08:22:47.122Z,65.4
2016-06-05T08:23:47.126Z,64.92
2016-06-05T08:24:46.940Z,65.92
2016-06-05T08:25:46.943Z,65.34
2016-06-05T08:26:47.133Z,66.02
2016-06-05T08:27:47.136Z,65.53
2016-06-05T08:28:47.217Z,65.63
2016-06-05T08:29:46.736Z,65.53
2016-06-05T08:30:47.128Z,65.53
2016-06-05T08:31:46.928Z,65.05
2016-06-05T08:32:46.931Z,64.95
2016-06-05T08:33:47.137Z,65.43
2016-06-05T08:34:47.139Z,66.11
2016-06-05T08:35:46.939Z,66.4
2016-06-05T08:36:46.941Z,66.4
2016-06-05T08:37:46.944Z,65.82
2016-06-05T08:38:46.774Z,65.72
2016-06-05T08:39:46.933Z,65.63
2016-06-05T08:40:46.936Z,65.43
2016-06-05T08:41:47.143Z,66.02
2016-06-05T08:42:46.942Z,65.92
2016-06-05T08:43:47.788Z,66.4
2016-06-05T08:44:46.947Z,66.3
2016-06-05T08:45:46.950Z,66.2
2016-06-05T08:46:47.140Z,66.5
2016-06-05T08:47:46.940Z,66.6
2016-06-05T08:48:47.162Z,66.5
2016-06-05T08:49:47.148Z,66.02
2016-06-05T08:50:47.151Z,66.3
2016-06-05T08:51:46.951Z,66.24
2016-06-05T08:52:46.953Z,66.78
2016-06-05T08:53:46.956Z,66.78
2016-06-05T08:54:46.755Z,66.78
2016-06-05T08:55:46.961Z,66.3
2016-06-05T08:56:46.948Z,65.92
2016-06-05T08:57:46.748Z,66.69
2016-06-05T08:58:46.953Z,66.2
2016-06-05T08:59:46.956Z,66.3
2016-06-05T09:00:47.178Z,65.85
2016-06-05T09:01:46.947Z,66.69
2016-06-05T09:02:46.745Z,66.6
2016-06-05T09:03:47.170Z,66.43
2016-06-05T09:04:46.955Z,66.53
2016-06-05T09:05:46.958Z,66.34
2016-06-05T09:06:46.960Z,66.05
2016-06-05T09:07:46.963Z,65.95
2016-06-05T09:08:47.169Z,65.95
2016-06-05T09:09:46.968Z,66.2
2016-06-05T09:10:46.767Z,65.95
2016-06-05T09:11:46.957Z,65.95
2016-06-05T09:12:47.444Z,65.92
2016-06-05T09:13:46.979Z,66.63
2016-06-05T09:14:46.965Z,66.14
2016-06-05T09:15:47.171Z,66.43
2016-06-05T09:16:47.174Z,66.05
2016-06-05T09:17:46.771Z,65.85
2016-06-05T09:18:46.773Z,66.05
2016-06-05T09:19:46.963Z,66.05
2016-06-05T09:20:46.982Z,66.63
2016-06-05T09:21:47.172Z,66.14
2016-06-05T09:22:46.768Z,66.24
2016-06-05T09:23:47.176Z,65.85
2016-06-05T09:24:46.976Z,66.53
2016-06-05T09:25:47.027Z,66.63
2016-06-05T09:26:47.185Z,66.05
2016-06-05T09:27:47.453Z,65.95
2016-06-05T09:28:47.784Z,66.82
2016-06-05T09:29:46.975Z,66.82
2016-06-05T09:30:46.993Z,66.82
2016-06-05T09:31:46.995Z,66.63
2016-06-05T09:32:46.795Z,66.34
2016-06-05T09:33:46.986Z,66.34
2016-06-05T09:34:46.989Z,67.11
2016-06-05T09:35:46.991Z,67.02
2016-06-05T09:36:47.196Z,66.82
2016-06-05T09:37:47.043Z,66.92
2016-06-05T09:38:47.202Z,66.82
2016-06-05T09:39:46.986Z,66.82
2016-06-05T09:40:46.988Z,67.05
2016-06-05T09:41:46.789Z,66.72
2016-06-05T09:42:47.463Z,67.11
2016-06-05T09:43:47.230Z,66.82
2016-06-05T09:44:46.999Z,66.63
2016-06-05T09:45:46.799Z,66.85
2016-06-05T09:46:47.005Z,65.98
2016-06-05T09:47:47.007Z,66.05
2016-06-05T09:48:47.010Z,66.82
2016-06-05T09:49:46.794Z,66.85
2016-06-05T09:50:46.797Z,65.89
2016-06-05T09:51:47.018Z,65.2
2016-06-05T09:52:47.021Z,65.4
2016-06-05T09:53:47.023Z,65.2
2016-06-05T09:54:47.214Z,65.59
2016-06-05T09:55:47.013Z,64.82
2016-06-05T09:56:47.016Z,64.62
2016-06-05T09:57:47.018Z,64.92
2016-06-05T09:58:47.225Z,64.72
2016-06-05T09:59:47.212Z,64.14
2016-06-05T10:00:47.012Z,64.24
2016-06-05T10:01:47.029Z,64.04
2016-06-05T10:02:46.673Z,64.62
2016-06-05T10:03:47.019Z,65.11
2016-06-05T10:04:47.225Z,64.72
2016-06-05T10:05:46.821Z,64.04
2016-06-05T10:06:47.231Z,64.62
2016-06-05T10:07:46.827Z,63.75
2016-06-05T10:08:47.236Z,63.2
2016-06-05T10:09:47.238Z,63.27
2016-06-05T10:10:47.022Z,63.75
2016-06-05T10:11:47.025Z,64.24
2016-06-05T10:12:47.044Z,64.24
2016-06-05T10:13:47.249Z,64.75
2016-06-05T10:14:47.235Z,64.65
2016-06-05T10:15:46.832Z,64.07
2016-06-05T10:16:47.257Z,65.14
2016-06-05T10:17:47.057Z,65.24
2016-06-05T10:18:47.043Z,64.75
2016-06-05T10:19:47.046Z,64.65
2016-06-05T10:20:47.049Z,64.56
2016-06-05T10:21:47.254Z,64.65
2016-06-05T10:22:47.054Z,64.65
2016-06-05T10:23:47.073Z,64.56
2016-06-05T10:24:47.045Z,64.56
2016-06-05T10:25:47.313Z,64.07
2016-06-05T10:26:47.253Z,64.75
2016-06-05T10:27:47.067Z,65.05
2016-06-05T10:28:47.259Z,65.43
2016-06-05T10:29:47.059Z,64.27
2016-06-05T10:30:47.061Z,64.27
2016-06-05T10:31:46.875Z,64.56
2016-06-05T10:32:47.066Z,63.69
2016-06-05T10:33:47.272Z,63.78
2016-06-05T10:34:47.072Z,63.2
2016-06-05T10:35:47.058Z,62.36
2016-06-05T10:36:46.873Z,62.55
2016-06-05T10:37:47.080Z,61.98
2016-06-05T10:38:47.285Z,62.36
2016-06-05T10:39:47.085Z,61.85
2016-06-05T10:40:47.088Z,62.75
2016-06-05T10:41:47.074Z,62.46
2016-06-05T10:42:46.952Z,62.07
2016-06-05T10:43:47.455Z,63.13
2016-06-05T10:44:47.082Z,63.23
2016-06-05T10:45:47.086Z,63.91
2016-06-05T10:46:47.104Z,64.4
2016-06-05T10:47:47.293Z,64.5
2016-06-05T10:48:46.890Z,63.33
2016-06-05T10:49:47.299Z,62.46
2016-06-05T10:50:47.302Z,61.88
2016-06-05T10:51:46.898Z,62.36
2016-06-05T10:52:47.307Z,61.98
2016-06-05T10:53:47.106Z,63.36
2016-06-05T10:54:47.313Z,63.33
2016-06-05T10:55:47.315Z,62.29
2016-06-05T10:56:47.099Z,62.39
2016-06-05T10:57:47.117Z,62.59
2016-06-05T10:58:47.151Z,62.68
2016-06-05T10:59:47.326Z,62.19
2016-06-05T11:00:47.125Z,63.36
2016-06-05T11:01:47.128Z,63.65
2016-06-05T11:02:47.115Z,63.36
2016-06-05T11:03:46.931Z,63.95
2016-06-05T11:04:47.137Z,63.17
2016-06-05T11:05:47.123Z,63.36
2016-06-05T11:06:47.125Z,63.36
2016-06-05T11:07:47.331Z,62.81
2016-06-05T11:08:47.131Z,63.29
2016-06-05T11:09:47.134Z,63.88
2016-06-05T11:10:47.356Z,63.2
2016-06-05T11:11:47.139Z,62.52
2016-06-05T11:12:47.142Z,63.2
2016-06-05T11:13:47.364Z,63.49
2016-06-05T11:14:47.367Z,62.52
2016-06-05T11:15:47.149Z,62.13
2016-06-05T11:16:47.355Z,63.49
2016-06-05T11:17:47.155Z,64.26
2016-06-05T11:18:47.174Z,63.39
2016-06-05T11:19:47.161Z,63.01
2016-06-05T11:20:46.960Z,62.23
2016-06-05T11:21:47.166Z,61.87
2016-06-05T11:22:47.371Z,61.74
2016-06-05T11:23:47.218Z,61.65
2016-06-05T11:24:46.971Z,61.77
2016-06-05T11:25:47.021Z,62.45
2016-06-05T11:26:47.180Z,61.65
2016-06-05T11:27:49.011Z,61.58
2016-06-05T11:28:47.185Z,60.22
2016-06-05T11:29:47.391Z,60.22
2016-06-05T11:30:47.190Z,60.51
2016-06-05T11:31:47.193Z,61.29
2016-06-05T11:32:47.399Z,61.09
2016-06-05T11:33:47.214Z,60.31
2016-06-05T11:34:47.217Z,59.54
2016-06-05T11:35:47.204Z,59.83
2016-06-05T11:36:47.409Z,59.34
2016-06-05T11:37:47.209Z,59.15
2016-06-05T11:38:47.415Z,58.57
2016-06-05T11:39:47.028Z,58.57
2016-06-05T11:40:47.217Z,58.86
2016-06-05T11:41:47.033Z,59.25
2016-06-05T11:42:48.269Z,59.15
2016-06-05T11:43:47.038Z,59.34
2016-06-05T11:44:47.431Z,59.38
2016-06-05T11:45:47.231Z,59.83
2016-06-05T11:46:47.436Z,60.64
2016-06-05T11:47:47.252Z,59.95
2016-06-05T11:48:47.239Z,61.02
2016-06-05T11:49:47.241Z,61.12
2016-06-05T11:50:47.244Z,60.51
2016-06-05T11:51:47.262Z,60.35
2016-06-05T11:52:47.249Z,61.12
2016-06-05T11:53:47.269Z,61.51
2016-06-05T11:54:47.255Z,61.41
2016-06-05T11:55:47.273Z,61.71
2016-06-05T11:56:47.057Z,61.8
2016-06-05T11:57:49.935Z,62.77
2016-06-05T11:58:47.281Z,61.8
2016-06-05T11:59:47.065Z,62.38
2016-06-05T12:00:47.271Z,62.77
2016-06-05T12:01:47.289Z,62.77
2016-06-05T12:02:47.276Z,61.8
2016-06-05T12:03:47.498Z,62.48
2016-06-05T12:04:47.500Z,62.97
2016-06-05T12:05:47.317Z,63.26
2016-06-05T12:06:47.304Z,63.75
2016-06-05T12:07:47.508Z,64.62
2016-06-05T12:08:47.309Z,64.81
2016-06-05T12:09:47.312Z,64.62
2016-06-05T12:10:47.314Z,64.72
2016-06-05T12:11:47.520Z,64.53
2016-06-05T12:12:48.289Z,64.91
2016-06-05T12:13:47.728Z,64.43
2016-06-05T12:14:47.324Z,64.85
2016-06-05T12:15:47.140Z,64.85
2016-06-05T12:16:47.533Z,64.81
2016-06-05T12:17:47.535Z,64.72
2016-06-05T12:18:47.352Z,64.26
2016-06-05T12:19:47.135Z,64.65
2016-06-05T12:20:47.341Z,64.75
2016-06-05T12:21:47.578Z,64.95
2016-06-05T12:22:47.346Z,64.36
2016-06-05T12:23:47.349Z,64.95
2016-06-05T12:24:47.351Z,63.97
2016-06-05T12:25:47.402Z,63.65
2016-06-05T12:26:47.372Z,63.97
2016-06-05T12:27:47.375Z,63.39
2016-06-05T12:28:47.221Z,63.49
2016-06-05T12:29:47.568Z,63.29
2016-06-05T12:30:47.586Z,63.59
2016-06-05T12:31:47.386Z,64.07
2016-06-05T12:32:47.170Z,64.26
2016-06-05T12:33:47.392Z,64.56
2016-06-05T12:34:47.395Z,64.75
2016-06-05T12:35:47.412Z,65.72
2016-06-05T12:36:47.195Z,64.46
2016-06-05T12:37:47.606Z,64.85
2016-06-05T12:38:47.405Z,65.14
2016-06-05T12:39:47.611Z,64.95
2016-06-05T12:40:47.613Z,64.95
2016-06-05T12:41:47.414Z,65.43
2016-06-05T12:42:48.056Z,65.33
2016-06-05T12:43:47.653Z,65.92
2016-06-05T12:44:47.422Z,66.21
2016-06-05T12:45:47.642Z,66.11
2016-06-05T12:46:47.645Z,65.92
2016-06-05T12:47:47.225Z,65.92
2016-06-05T12:48:47.635Z,65.72
2016-06-05T12:49:47.435Z,65.92
2016-06-05T12:50:47.437Z,66.21
2016-06-05T12:51:47.658Z,65.63
2016-06-05T12:52:47.474Z,65.92
2016-06-05T12:53:47.664Z,66.05
2016-06-05T12:54:47.260Z,65.23
2016-06-05T12:55:47.466Z,65.95